sensor_id;sensor_type;location;lat;lon;timestamp;P1;durP1;ratioP1;P2;durP2;ratioP2
13411;SDS011;67102;51.666;6.880;2023-02-15T00:01:04;10.10;;;6.33;;
13411;SDS011;67102;51.666;6.880;2023-02-15T00:03:31;8.53;;;6.00;;
13411;SDS011;67102;51.666;6.880;2023-02-15T00:05:57;8.97;;;6.13;;
13411;SDS011;67102;51.666;6.880;2023-02-15T00:08:24;9.13;;;6.30;;
13411;SDS011;67102;51.666;6.880;2023-02-15T00:10:50;8.50;;;5.80;;
13411;SDS011;67102;51.666;6.880;2023-02-15T00:13:16;7.47;;;5.27;;
13411;SDS011;67102;51.666;6.880;2023-02-15T00:15:42;7.07;;;5.57;;
13411;SDS011;67102;51.666;6.880;2023-02-15T00:18:08;7.90;;;5.43;;
13411;SDS011;67102;51.666;6.880;2023-02-15T00:20:34;7.87;;;5.40;;
13411;SDS011;67102;51.666;6.880;2023-02-15T00:23:00;8.67;;;5.70;;
13411;SDS011;67102;51.666;6.880;2023-02-15T00:25:27;7.87;;;5.57;;
13411;SDS011;67102;51.666;6.880;2023-02-15T00:27:53;8.77;;;6.60;;
13411;SDS011;67102;51.666;6.880;2023-02-15T00:30:19;9.00;;;6.20;;
13411;SDS011;67102;51.666;6.880;2023-02-15T00:32:46;8.80;;;6.10;;
13411;SDS011;67102;51.666;6.880;2023-02-15T00:35:12;9.73;;;6.27;;
13411;SDS011;67102;51.666;6.880;2023-02-15T00:37:38;9.23;;;5.77;;
13411;SDS011;67102;51.666;6.880;2023-02-15T00:40:06;10.83;;;7.10;;
13411;SDS011;67102;51.666;6.880;2023-02-15T00:42:34;10.60;;;6.47;;
13411;SDS011;67102;51.666;6.880;2023-02-15T00:45:00;11.60;;;6.83;;
13411;SDS011;67102;51.666;6.880;2023-02-15T00:47:26;12.83;;;8.67;;
13411;SDS011;67102;51.666;6.880;2023-02-15T00:49:52;12.87;;;9.17;;
13411;SDS011;67102;51.666;6.880;2023-02-15T00:52:18;10.43;;;7.53;;
13411;SDS011;67102;51.666;6.880;2023-02-15T00:54:44;9.67;;;7.00;;
13411;SDS011;67102;51.666;6.880;2023-02-15T00:57:10;11.00;;;7.10;;
13411;SDS011;67102;51.666;6.880;2023-02-15T00:59:37;8.50;;;6.10;;
13411;SDS011;67102;51.666;6.880;2023-02-15T01:02:03;8.73;;;5.57;;
13411;SDS011;67102;51.666;6.880;2023-02-15T01:04:28;9.37;;;6.07;;
13411;SDS011;67102;51.666;6.880;2023-02-15T01:06:54;8.60;;;5.80;;
13411;SDS011;67102;51.666;6.880;2023-02-15T01:09:20;6.70;;;5.23;;
13411;SDS011;67102;51.666;6.880;2023-02-15T01:11:46;7.87;;;5.70;;
13411;SDS011;67102;51.666;6.880;2023-02-15T01:14:12;9.70;;;6.63;;
13411;SDS011;67102;51.666;6.880;2023-02-15T01:16:40;10.60;;;7.00;;
13411;SDS011;67102;51.666;6.880;2023-02-15T01:19:05;10.43;;;7.40;;
13411;SDS011;67102;51.666;6.880;2023-02-15T01:21:31;12.83;;;7.50;;
13411;SDS011;67102;51.666;6.880;2023-02-15T01:23:57;10.30;;;7.37;;
13411;SDS011;67102;51.666;6.880;2023-02-15T01:26:23;8.27;;;6.03;;
13411;SDS011;67102;51.666;6.880;2023-02-15T01:28:49;8.37;;;5.97;;
13411;SDS011;67102;51.666;6.880;2023-02-15T01:31:15;8.27;;;5.53;;
13411;SDS011;67102;51.666;6.880;2023-02-15T01:33:45;6.67;;;5.33;;
13411;SDS011;67102;51.666;6.880;2023-02-15T01:36:12;8.30;;;5.80;;
13411;SDS011;67102;51.666;6.880;2023-02-15T01:38:38;8.67;;;5.63;;
13411;SDS011;67102;51.666;6.880;2023-02-15T01:41:04;9.17;;;5.90;;
13411;SDS011;67102;51.666;6.880;2023-02-15T01:43:38;9.57;;;6.53;;
13411;SDS011;67102;51.666;6.880;2023-02-15T01:46:06;9.80;;;6.87;;
13411;SDS011;67102;51.666;6.880;2023-02-15T01:48:34;8.93;;;6.63;;
13411;SDS011;67102;51.666;6.880;2023-02-15T01:51:10;7.70;;;5.63;;
13411;SDS011;67102;51.666;6.880;2023-02-15T01:53:37;7.63;;;6.27;;
13411;SDS011;67102;51.666;6.880;2023-02-15T01:56:08;10.07;;;6.03;;
13411;SDS011;67102;51.666;6.880;2023-02-15T01:58:39;10.87;;;6.60;;
13411;SDS011;67102;51.666;6.880;2023-02-15T02:01:06;11.00;;;6.23;;
13411;SDS011;67102;51.666;6.880;2023-02-15T02:03:36;8.73;;;6.47;;
13411;SDS011;67102;51.666;6.880;2023-02-15T02:06:16;7.57;;;5.53;;
13411;SDS011;67102;51.666;6.880;2023-02-15T02:08:43;10.13;;;6.13;;
13411;SDS011;67102;51.666;6.880;2023-02-15T02:11:10;8.17;;;5.97;;
13411;SDS011;67102;51.666;6.880;2023-02-15T02:13:36;9.37;;;6.07;;
13411;SDS011;67102;51.666;6.880;2023-02-15T02:16:03;7.90;;;6.00;;
13411;SDS011;67102;51.666;6.880;2023-02-15T02:18:38;7.37;;;5.87;;
13411;SDS011;67102;51.666;6.880;2023-02-15T02:24:44;8.20;;;5.77;;
13411;SDS011;67102;51.666;6.880;2023-02-15T02:27:41;8.27;;;5.43;;
13411;SDS011;67102;51.666;6.880;2023-02-15T02:36:19;9.77;;;5.70;;
13411;SDS011;67102;51.666;6.880;2023-02-15T02:38:53;8.23;;;5.70;;
13411;SDS011;67102;51.666;6.880;2023-02-15T02:41:31;9.17;;;6.17;;
13411;SDS011;67102;51.666;6.880;2023-02-15T02:44:07;8.03;;;5.63;;
13411;SDS011;67102;51.666;6.880;2023-02-15T02:46:41;7.17;;;5.10;;
13411;SDS011;67102;51.666;6.880;2023-02-15T02:49:17;9.23;;;5.70;;
13411;SDS011;67102;51.666;6.880;2023-02-15T02:51:57;8.73;;;5.83;;
13411;SDS011;67102;51.666;6.880;2023-02-15T02:54:24;10.13;;;6.33;;
13411;SDS011;67102;51.666;6.880;2023-02-15T02:56:50;10.03;;;6.80;;
13411;SDS011;67102;51.666;6.880;2023-02-15T02:59:18;10.13;;;6.70;;
13411;SDS011;67102;51.666;6.880;2023-02-15T03:01:51;9.67;;;7.07;;
13411;SDS011;67102;51.666;6.880;2023-02-15T03:04:22;11.97;;;7.97;;
13411;SDS011;67102;51.666;6.880;2023-02-15T03:06:54;11.47;;;8.20;;
13411;SDS011;67102;51.666;6.880;2023-02-15T03:09:25;11.40;;;8.77;;
13411;SDS011;67102;51.666;6.880;2023-02-15T03:11:54;14.93;;;9.50;;
13411;SDS011;67102;51.666;6.880;2023-02-15T03:14:20;12.03;;;7.93;;
13411;SDS011;67102;51.666;6.880;2023-02-15T03:16:47;11.83;;;8.27;;
13411;SDS011;67102;51.666;6.880;2023-02-15T03:19:15;15.10;;;9.60;;
13411;SDS011;67102;51.666;6.880;2023-02-15T03:21:48;15.00;;;10.30;;
13411;SDS011;67102;51.666;6.880;2023-02-15T03:24:17;13.63;;;10.50;;
13411;SDS011;67102;51.666;6.880;2023-02-15T03:26:47;13.07;;;9.30;;
13411;SDS011;67102;51.666;6.880;2023-02-15T03:29:16;10.50;;;7.40;;
13411;SDS011;67102;51.666;6.880;2023-02-15T03:31:45;11.80;;;8.33;;
13411;SDS011;67102;51.666;6.880;2023-02-15T03:34:16;9.43;;;7.37;;
13411;SDS011;67102;51.666;6.880;2023-02-15T03:36:44;10.43;;;7.67;;
13411;SDS011;67102;51.666;6.880;2023-02-15T03:39:19;10.17;;;7.30;;
13411;SDS011;67102;51.666;6.880;2023-02-15T03:41:49;12.07;;;8.10;;
13411;SDS011;67102;51.666;6.880;2023-02-15T03:44:25;10.27;;;7.80;;
13411;SDS011;67102;51.666;6.880;2023-02-15T03:46:56;12.30;;;8.73;;
13411;SDS011;67102;51.666;6.880;2023-02-15T03:49:30;13.90;;;8.90;;
13411;SDS011;67102;51.666;6.880;2023-02-15T03:52:08;16.03;;;9.30;;
13411;SDS011;67102;51.666;6.880;2023-02-15T03:54:38;12.10;;;8.80;;
13411;SDS011;67102;51.666;6.880;2023-02-15T03:57:06;15.20;;;9.33;;
13411;SDS011;67102;51.666;6.880;2023-02-15T03:59:35;16.00;;;10.23;;
13411;SDS011;67102;51.666;6.880;2023-02-15T04:02:04;14.57;;;10.40;;
13411;SDS011;67102;51.666;6.880;2023-02-15T04:04:43;17.00;;;11.27;;
13411;SDS011;67102;51.666;6.880;2023-02-15T04:07:14;14.97;;;10.27;;
13411;SDS011;67102;51.666;6.880;2023-02-15T04:09:40;14.17;;;9.13;;
13411;SDS011;67102;51.666;6.880;2023-02-15T04:12:06;11.87;;;8.17;;
13411;SDS011;67102;51.666;6.880;2023-02-15T04:14:32;11.53;;;7.73;;
13411;SDS011;67102;51.666;6.880;2023-02-15T04:16:58;11.63;;;7.87;;
13411;SDS011;67102;51.666;6.880;2023-02-15T04:19:24;11.77;;;8.37;;
13411;SDS011;67102;51.666;6.880;2023-02-15T04:21:49;12.20;;;8.07;;
13411;SDS011;67102;51.666;6.880;2023-02-15T04:24:17;11.37;;;8.70;;
13411;SDS011;67102;51.666;6.880;2023-02-15T04:26:43;11.70;;;8.17;;
13411;SDS011;67102;51.666;6.880;2023-02-15T04:29:09;11.93;;;7.83;;
13411;SDS011;67102;51.666;6.880;2023-02-15T04:31:35;10.77;;;7.33;;
13411;SDS011;67102;51.666;6.880;2023-02-15T04:34:01;9.47;;;7.57;;
13411;SDS011;67102;51.666;6.880;2023-02-15T04:36:26;10.27;;;7.43;;
13411;SDS011;67102;51.666;6.880;2023-02-15T04:38:52;10.87;;;7.87;;
13411;SDS011;67102;51.666;6.880;2023-02-15T04:41:20;9.80;;;7.73;;
13411;SDS011;67102;51.666;6.880;2023-02-15T04:43:45;10.90;;;7.77;;
13411;SDS011;67102;51.666;6.880;2023-02-15T04:46:11;10.00;;;7.23;;
13411;SDS011;67102;51.666;6.880;2023-02-15T04:48:37;11.07;;;8.00;;
13411;SDS011;67102;51.666;6.880;2023-02-15T04:51:04;10.50;;;7.90;;
13411;SDS011;67102;51.666;6.880;2023-02-15T04:53:31;11.63;;;8.90;;
13411;SDS011;67102;51.666;6.880;2023-02-15T04:55:57;13.17;;;9.30;;
13411;SDS011;67102;51.666;6.880;2023-02-15T04:58:24;17.57;;;10.90;;
13411;SDS011;67102;51.666;6.880;2023-02-15T05:00:50;17.90;;;11.20;;
13411;SDS011;67102;51.666;6.880;2023-02-15T05:03:16;15.87;;;11.27;;
13411;SDS011;67102;51.666;6.880;2023-02-15T05:05:42;17.40;;;11.50;;
13411;SDS011;67102;51.666;6.880;2023-02-15T05:08:08;16.07;;;11.03;;
13411;SDS011;67102;51.666;6.880;2023-02-15T05:10:34;16.93;;;11.90;;
13411;SDS011;67102;51.666;6.880;2023-02-15T05:13:00;15.87;;;11.23;;
13411;SDS011;67102;51.666;6.880;2023-02-15T05:15:27;15.60;;;10.83;;
13411;SDS011;67102;51.666;6.880;2023-02-15T05:17:53;16.20;;;10.77;;
13411;SDS011;67102;51.666;6.880;2023-02-15T05:20:19;15.77;;;10.97;;
13411;SDS011;67102;51.666;6.880;2023-02-15T05:22:45;15.67;;;10.60;;
13411;SDS011;67102;51.666;6.880;2023-02-15T05:25:11;14.70;;;10.10;;
13411;SDS011;67102;51.666;6.880;2023-02-15T05:27:37;13.83;;;9.87;;
13411;SDS011;67102;51.666;6.880;2023-02-15T05:30:04;12.43;;;8.73;;
13411;SDS011;67102;51.666;6.880;2023-02-15T05:32:32;11.03;;;8.27;;
13411;SDS011;67102;51.666;6.880;2023-02-15T05:34:58;14.60;;;9.60;;
13411;SDS011;67102;51.666;6.880;2023-02-15T05:37:24;13.87;;;9.47;;
13411;SDS011;67102;51.666;6.880;2023-02-15T05:39:50;14.63;;;10.07;;
13411;SDS011;67102;51.666;6.880;2023-02-15T05:42:16;15.67;;;10.37;;
13411;SDS011;67102;51.666;6.880;2023-02-15T05:44:42;15.07;;;10.00;;
13411;SDS011;67102;51.666;6.880;2023-02-15T05:47:08;13.77;;;10.40;;
13411;SDS011;67102;51.666;6.880;2023-02-15T05:49:35;14.43;;;10.97;;
13411;SDS011;67102;51.666;6.880;2023-02-15T05:52:01;14.90;;;10.60;;
13411;SDS011;67102;51.666;6.880;2023-02-15T05:54:28;11.23;;;8.70;;
13411;SDS011;67102;51.666;6.880;2023-02-15T05:56:54;11.63;;;8.30;;
13411;SDS011;67102;51.666;6.880;2023-02-15T05:59:19;12.00;;;8.17;;
13411;SDS011;67102;51.666;6.880;2023-02-15T06:01:45;13.37;;;7.53;;
13411;SDS011;67102;51.666;6.880;2023-02-15T06:04:12;9.20;;;6.80;;
13411;SDS011;67102;51.666;6.880;2023-02-15T06:06:39;10.50;;;7.20;;
13411;SDS011;67102;51.666;6.880;2023-02-15T06:09:05;11.17;;;7.63;;
13411;SDS011;67102;51.666;6.880;2023-02-15T06:11:31;9.80;;;7.63;;
13411;SDS011;67102;51.666;6.880;2023-02-15T06:13:56;9.97;;;7.47;;
13411;SDS011;67102;51.666;6.880;2023-02-15T06:16:22;9.90;;;8.03;;
13411;SDS011;67102;51.666;6.880;2023-02-15T06:18:48;13.17;;;9.17;;
13411;SDS011;67102;51.666;6.880;2023-02-15T06:21:14;14.10;;;8.87;;
13411;SDS011;67102;51.666;6.880;2023-02-15T06:23:42;12.60;;;8.13;;
13411;SDS011;67102;51.666;6.880;2023-02-15T06:26:07;11.97;;;8.57;;
13411;SDS011;67102;51.666;6.880;2023-02-15T06:28:33;13.40;;;9.13;;
13411;SDS011;67102;51.666;6.880;2023-02-15T06:30:59;11.63;;;8.70;;
13411;SDS011;67102;51.666;6.880;2023-02-15T06:33:25;13.63;;;8.93;;
13411;SDS011;67102;51.666;6.880;2023-02-15T06:35:51;13.17;;;9.17;;
13411;SDS011;67102;51.666;6.880;2023-02-15T06:38:17;12.07;;;9.03;;
13411;SDS011;67102;51.666;6.880;2023-02-15T06:40:45;12.37;;;8.37;;
13411;SDS011;67102;51.666;6.880;2023-02-15T06:43:11;11.50;;;8.57;;
13411;SDS011;67102;51.666;6.880;2023-02-15T06:45:37;11.40;;;8.57;;
13411;SDS011;67102;51.666;6.880;2023-02-15T06:48:03;11.27;;;8.40;;
13411;SDS011;67102;51.666;6.880;2023-02-15T06:50:29;11.47;;;8.23;;
13411;SDS011;67102;51.666;6.880;2023-02-15T06:52:55;10.60;;;7.93;;
13411;SDS011;67102;51.666;6.880;2023-02-15T06:55:22;10.40;;;7.53;;
13411;SDS011;67102;51.666;6.880;2023-02-15T06:57:49;10.97;;;7.93;;
13411;SDS011;67102;51.666;6.880;2023-02-15T07:00:15;11.67;;;8.17;;
13411;SDS011;67102;51.666;6.880;2023-02-15T07:02:41;11.83;;;7.60;;
13411;SDS011;67102;51.666;6.880;2023-02-15T07:05:07;11.50;;;8.60;;
13411;SDS011;67102;51.666;6.880;2023-02-15T07:07:33;12.07;;;8.20;;
13411;SDS011;67102;51.666;6.880;2023-02-15T07:09:59;10.90;;;8.33;;
13411;SDS011;67102;51.666;6.880;2023-02-15T07:12:25;11.53;;;8.23;;
13411;SDS011;67102;51.666;6.880;2023-02-15T07:14:55;12.33;;;8.20;;
13411;SDS011;67102;51.666;6.880;2023-02-15T07:17:21;10.37;;;7.60;;
13411;SDS011;67102;51.666;6.880;2023-02-15T07:19:47;11.63;;;7.77;;
13411;SDS011;67102;51.666;6.880;2023-02-15T07:22:13;10.23;;;7.73;;
13411;SDS011;67102;51.666;6.880;2023-02-15T07:24:39;12.17;;;8.40;;
13411;SDS011;67102;51.666;6.880;2023-02-15T07:27:06;13.73;;;10.27;;
13411;SDS011;67102;51.666;6.880;2023-02-15T07:29:32;16.23;;;10.57;;
13411;SDS011;67102;51.666;6.880;2023-02-15T07:31:59;13.13;;;9.53;;
13411;SDS011;67102;51.666;6.880;2023-02-15T07:34:25;13.20;;;8.77;;
13411;SDS011;67102;51.666;6.880;2023-02-15T07:36:51;11.07;;;9.27;;
13411;SDS011;67102;51.666;6.880;2023-02-15T07:39:17;14.33;;;9.60;;
13411;SDS011;67102;51.666;6.880;2023-02-15T07:41:43;15.20;;;10.20;;
13411;SDS011;67102;51.666;6.880;2023-02-15T07:44:10;14.90;;;9.97;;
13411;SDS011;67102;51.666;6.880;2023-02-15T07:46:36;13.63;;;9.30;;
13411;SDS011;67102;51.666;6.880;2023-02-15T07:49:04;11.97;;;8.90;;
13411;SDS011;67102;51.666;6.880;2023-02-15T07:51:30;13.33;;;9.67;;
13411;SDS011;67102;51.666;6.880;2023-02-15T07:53:55;14.27;;;9.77;;
13411;SDS011;67102;51.666;6.880;2023-02-15T07:56:21;14.13;;;9.70;;
13411;SDS011;67102;51.666;6.880;2023-02-15T07:58:47;15.00;;;10.30;;
13411;SDS011;67102;51.666;6.880;2023-02-15T08:01:13;12.10;;;9.40;;
13411;SDS011;67102;51.666;6.880;2023-02-15T08:03:40;13.63;;;10.43;;
13411;SDS011;67102;51.666;6.880;2023-02-15T08:06:07;12.60;;;10.33;;
13411;SDS011;67102;51.666;6.880;2023-02-15T08:08:34;13.20;;;10.00;;
13411;SDS011;67102;51.666;6.880;2023-02-15T08:11:00;34.47;;;27.30;;
13411;SDS011;67102;51.666;6.880;2023-02-15T08:13:28;28.43;;;22.90;;
13411;SDS011;67102;51.666;6.880;2023-02-15T08:15:54;21.80;;;18.13;;
13411;SDS011;67102;51.666;6.880;2023-02-15T08:18:20;19.10;;;15.57;;
13411;SDS011;67102;51.666;6.880;2023-02-15T08:20:48;19.17;;;15.47;;
13411;SDS011;67102;51.666;6.880;2023-02-15T08:23:16;16.83;;;13.50;;
13411;SDS011;67102;51.666;6.880;2023-02-15T08:25:42;17.73;;;12.20;;
13411;SDS011;67102;51.666;6.880;2023-02-15T08:28:08;15.50;;;11.53;;
13411;SDS011;67102;51.666;6.880;2023-02-15T08:30:33;14.83;;;12.50;;
13411;SDS011;67102;51.666;6.880;2023-02-15T08:32:59;14.80;;;11.53;;
13411;SDS011;67102;51.666;6.880;2023-02-15T08:35:25;12.03;;;10.27;;
13411;SDS011;67102;51.666;6.880;2023-02-15T08:37:51;12.50;;;10.57;;
13411;SDS011;67102;51.666;6.880;2023-02-15T08:40:19;12.60;;;10.57;;
13411;SDS011;67102;51.666;6.880;2023-02-15T08:42:45;12.23;;;10.43;;
13411;SDS011;67102;51.666;6.880;2023-02-15T08:45:11;13.13;;;11.07;;
13411;SDS011;67102;51.666;6.880;2023-02-15T08:47:37;15.07;;;11.43;;
13411;SDS011;67102;51.666;6.880;2023-02-15T08:50:03;12.43;;;10.77;;
13411;SDS011;67102;51.666;6.880;2023-02-15T08:52:30;15.13;;;11.63;;
13411;SDS011;67102;51.666;6.880;2023-02-15T08:54:56;14.17;;;11.63;;
13411;SDS011;67102;51.666;6.880;2023-02-15T08:57:23;13.83;;;11.37;;
13411;SDS011;67102;51.666;6.880;2023-02-15T08:59:49;14.43;;;11.63;;
13411;SDS011;67102;51.666;6.880;2023-02-15T09:02:15;15.77;;;11.70;;
13411;SDS011;67102;51.666;6.880;2023-02-15T09:04:41;14.27;;;12.30;;
13411;SDS011;67102;51.666;6.880;2023-02-15T09:07:07;13.13;;;11.30;;
13411;SDS011;67102;51.666;6.880;2023-02-15T09:09:33;15.03;;;11.67;;
13411;SDS011;67102;51.666;6.880;2023-02-15T09:11:58;14.03;;;12.13;;
13411;SDS011;67102;51.666;6.880;2023-02-15T09:14:28;15.87;;;13.33;;
13411;SDS011;67102;51.666;6.880;2023-02-15T09:16:54;16.73;;;12.77;;
13411;SDS011;67102;51.666;6.880;2023-02-15T09:19:20;15.67;;;12.63;;
13411;SDS011;67102;51.666;6.880;2023-02-15T09:21:48;15.17;;;12.93;;
13411;SDS011;67102;51.666;6.880;2023-02-15T09:24:14;16.93;;;13.40;;
13411;SDS011;67102;51.666;6.880;2023-02-15T09:26:43;16.10;;;13.10;;
13411;SDS011;67102;51.666;6.880;2023-02-15T09:29:10;17.30;;;12.87;;
13411;SDS011;67102;51.666;6.880;2023-02-15T09:31:40;15.83;;;13.10;;
13411;SDS011;67102;51.666;6.880;2023-02-15T09:34:07;15.70;;;12.60;;
13411;SDS011;67102;51.666;6.880;2023-02-15T09:36:34;15.97;;;12.50;;
13411;SDS011;67102;51.666;6.880;2023-02-15T09:39:04;15.30;;;12.33;;
13411;SDS011;67102;51.666;6.880;2023-02-15T09:41:40;14.70;;;12.00;;
13411;SDS011;67102;51.666;6.880;2023-02-15T09:44:27;14.73;;;11.23;;
13411;SDS011;67102;51.666;6.880;2023-02-15T09:47:26;14.40;;;11.67;;
13411;SDS011;67102;51.666;6.880;2023-02-15T09:50:10;13.93;;;11.23;;
13411;SDS011;67102;51.666;6.880;2023-02-15T09:52:47;13.63;;;10.93;;
13411;SDS011;67102;51.666;6.880;2023-02-15T09:55:38;13.33;;;10.87;;
13411;SDS011;67102;51.666;6.880;2023-02-15T09:58:20;14.20;;;9.77;;
13411;SDS011;67102;51.666;6.880;2023-02-15T10:00:57;13.17;;;10.37;;
13411;SDS011;67102;51.666;6.880;2023-02-15T10:03:40;13.53;;;10.67;;
13411;SDS011;67102;51.666;6.880;2023-02-15T10:06:32;12.23;;;10.30;;
13411;SDS011;67102;51.666;6.880;2023-02-15T10:09:10;11.40;;;9.80;;
13411;SDS011;67102;51.666;6.880;2023-02-15T10:15:08;10.77;;;9.67;;
13411;SDS011;67102;51.666;6.880;2023-02-15T10:17:59;13.07;;;10.33;;
13411;SDS011;67102;51.666;6.880;2023-02-15T10:20:44;15.63;;;10.87;;
13411;SDS011;67102;51.666;6.880;2023-02-15T10:23:25;12.87;;;10.30;;
13411;SDS011;67102;51.666;6.880;2023-02-15T10:26:25;11.90;;;9.40;;
13411;SDS011;67102;51.666;6.880;2023-02-15T10:28:57;13.73;;;10.70;;
13411;SDS011;67102;51.666;6.880;2023-02-15T10:31:31;14.57;;;10.57;;
13411;SDS011;67102;51.666;6.880;2023-02-15T10:34:15;13.47;;;10.57;;
13411;SDS011;67102;51.666;6.880;2023-02-15T10:39:47;11.83;;;9.97;;
13411;SDS011;67102;51.666;6.880;2023-02-15T10:42:27;13.83;;;10.43;;
13411;SDS011;67102;51.666;6.880;2023-02-15T10:45:05;12.83;;;9.67;;
13411;SDS011;67102;51.666;6.880;2023-02-15T10:47:42;11.53;;;9.50;;
13411;SDS011;67102;51.666;6.880;2023-02-15T10:50:27;12.67;;;9.20;;
13411;SDS011;67102;51.666;6.880;2023-02-15T10:53:10;10.87;;;9.07;;
13411;SDS011;67102;51.666;6.880;2023-02-15T10:56:02;12.77;;;9.57;;
13411;SDS011;67102;51.666;6.880;2023-02-15T10:58:40;12.43;;;9.40;;
13411;SDS011;67102;51.666;6.880;2023-02-15T11:01:30;11.33;;;9.13;;
13411;SDS011;67102;51.666;6.880;2023-02-15T11:04:16;13.67;;;9.63;;
13411;SDS011;67102;51.666;6.880;2023-02-15T11:07:05;11.53;;;9.43;;
13411;SDS011;67102;51.666;6.880;2023-02-15T11:09:42;11.60;;;8.80;;
13411;SDS011;67102;51.666;6.880;2023-02-15T11:12:13;12.07;;;9.00;;
13411;SDS011;67102;51.666;6.880;2023-02-15T11:14:43;11.53;;;8.70;;
13411;SDS011;67102;51.666;6.880;2023-02-15T11:17:12;12.03;;;9.00;;
13411;SDS011;67102;51.666;6.880;2023-02-15T11:19:45;12.57;;;9.67;;
13411;SDS011;67102;51.666;6.880;2023-02-15T11:22:21;11.27;;;8.30;;
13411;SDS011;67102;51.666;6.880;2023-02-15T11:24:50;10.90;;;8.60;;
13411;SDS011;67102;51.666;6.880;2023-02-15T11:27:19;10.97;;;8.90;;
13411;SDS011;67102;51.666;6.880;2023-02-15T11:29:50;12.73;;;8.33;;
13411;SDS011;67102;51.666;6.880;2023-02-15T11:32:23;11.03;;;8.00;;
13411;SDS011;67102;51.666;6.880;2023-02-15T11:34:53;9.97;;;7.87;;
13411;SDS011;67102;51.666;6.880;2023-02-15T11:37:27;10.90;;;7.93;;
13411;SDS011;67102;51.666;6.880;2023-02-15T11:40:00;10.50;;;8.07;;
13411;SDS011;67102;51.666;6.880;2023-02-15T11:42:27;11.73;;;8.83;;
13411;SDS011;67102;51.666;6.880;2023-02-15T11:44:58;11.70;;;8.23;;
13411;SDS011;67102;51.666;6.880;2023-02-15T11:47:27;12.60;;;9.10;;
13411;SDS011;67102;51.666;6.880;2023-02-15T11:49:53;10.77;;;8.40;;
13411;SDS011;67102;51.666;6.880;2023-02-15T11:52:19;10.03;;;8.00;;
13411;SDS011;67102;51.666;6.880;2023-02-15T11:54:46;11.17;;;8.43;;
13411;SDS011;67102;51.666;6.880;2023-02-15T11:57:17;12.83;;;8.87;;
13411;SDS011;67102;51.666;6.880;2023-02-15T11:59:49;11.33;;;8.80;;
13411;SDS011;67102;51.666;6.880;2023-02-15T12:02:22;11.47;;;8.07;;
13411;SDS011;67102;51.666;6.880;2023-02-15T12:04:49;11.57;;;8.77;;
13411;SDS011;67102;51.666;6.880;2023-02-15T12:07:20;12.40;;;8.20;;
13411;SDS011;67102;51.666;6.880;2023-02-15T12:09:50;10.73;;;8.10;;
13411;SDS011;67102;51.666;6.880;2023-02-15T12:12:26;10.33;;;8.33;;
13411;SDS011;67102;51.666;6.880;2023-02-15T12:14:55;10.20;;;8.20;;
13411;SDS011;67102;51.666;6.880;2023-02-15T12:17:23;12.07;;;8.47;;
13411;SDS011;67102;51.666;6.880;2023-02-15T12:19:52;11.13;;;8.23;;
13411;SDS011;67102;51.666;6.880;2023-02-15T12:22:22;10.17;;;8.33;;
13411;SDS011;67102;51.666;6.880;2023-02-15T12:24:52;10.97;;;8.13;;
13411;SDS011;67102;51.666;6.880;2023-02-15T12:27:21;10.37;;;7.67;;
13411;SDS011;67102;51.666;6.880;2023-02-15T12:29:52;10.93;;;7.30;;
13411;SDS011;67102;51.666;6.880;2023-02-15T12:32:22;11.73;;;8.00;;
13411;SDS011;67102;51.666;6.880;2023-02-15T12:34:51;11.90;;;8.17;;
13411;SDS011;67102;51.666;6.880;2023-02-15T12:37:22;9.73;;;6.97;;
13411;SDS011;67102;51.666;6.880;2023-02-15T12:39:52;10.23;;;7.67;;
13411;SDS011;67102;51.666;6.880;2023-02-15T12:42:20;10.60;;;7.57;;
13411;SDS011;67102;51.666;6.880;2023-02-15T12:44:55;11.77;;;8.33;;
13411;SDS011;67102;51.666;6.880;2023-02-15T12:47:25;11.67;;;7.53;;
13411;SDS011;67102;51.666;6.880;2023-02-15T12:52:39;10.70;;;7.87;;
13411;SDS011;67102;51.666;6.880;2023-02-15T12:55:09;11.03;;;8.07;;
13411;SDS011;67102;51.666;6.880;2023-02-15T12:57:43;11.37;;;7.70;;
13411;SDS011;67102;51.666;6.880;2023-02-15T13:00:24;12.47;;;8.10;;
13411;SDS011;67102;51.666;6.880;2023-02-15T13:02:53;11.90;;;8.23;;
13411;SDS011;67102;51.666;6.880;2023-02-15T13:05:21;11.07;;;8.00;;
13411;SDS011;67102;51.666;6.880;2023-02-15T13:07:53;13.40;;;8.57;;
13411;SDS011;67102;51.666;6.880;2023-02-15T13:10:24;11.07;;;7.90;;
13411;SDS011;67102;51.666;6.880;2023-02-15T13:12:53;12.53;;;8.07;;
13411;SDS011;67102;51.666;6.880;2023-02-15T13:15:38;10.80;;;8.17;;
13411;SDS011;67102;51.666;6.880;2023-02-15T13:18:12;11.63;;;7.97;;
13411;SDS011;67102;51.666;6.880;2023-02-15T13:20:42;11.60;;;8.27;;
13411;SDS011;67102;51.666;6.880;2023-02-15T13:23:13;13.73;;;8.57;;
13411;SDS011;67102;51.666;6.880;2023-02-15T13:25:51;12.30;;;9.17;;
13411;SDS011;67102;51.666;6.880;2023-02-15T13:28:19;11.90;;;8.50;;
13411;SDS011;67102;51.666;6.880;2023-02-15T13:30:51;12.97;;;8.60;;
13411;SDS011;67102;51.666;6.880;2023-02-15T13:33:19;13.57;;;8.50;;
13411;SDS011;67102;51.666;6.880;2023-02-15T13:35:49;10.67;;;8.00;;
13411;SDS011;67102;51.666;6.880;2023-02-15T13:38:38;13.20;;;8.57;;
13411;SDS011;67102;51.666;6.880;2023-02-15T13:41:14;13.97;;;8.10;;
13411;SDS011;67102;51.666;6.880;2023-02-15T13:43:47;11.80;;;7.93;;
13411;SDS011;67102;51.666;6.880;2023-02-15T13:46:27;13.17;;;7.40;;
13411;SDS011;67102;51.666;6.880;2023-02-15T13:49:11;11.30;;;8.37;;
13411;SDS011;67102;51.666;6.880;2023-02-15T13:51:45;11.77;;;7.33;;
13411;SDS011;67102;51.666;6.880;2023-02-15T13:54:25;11.23;;;7.93;;
13411;SDS011;67102;51.666;6.880;2023-02-15T13:57:34;13.03;;;8.27;;
13411;SDS011;67102;51.666;6.880;2023-02-15T14:00:24;13.17;;;7.73;;
13411;SDS011;67102;51.666;6.880;2023-02-15T14:03:09;12.47;;;8.63;;
13411;SDS011;67102;51.666;6.880;2023-02-15T14:06:14;12.93;;;7.80;;
13411;SDS011;67102;51.666;6.880;2023-02-15T14:09:11;12.57;;;8.57;;
13411;SDS011;67102;51.666;6.880;2023-02-15T14:11:51;12.80;;;8.10;;
13411;SDS011;67102;51.666;6.880;2023-02-15T14:14:38;14.33;;;8.77;;
13411;SDS011;67102;51.666;6.880;2023-02-15T14:17:43;13.30;;;8.60;;
13411;SDS011;67102;51.666;6.880;2023-02-15T14:20:24;13.10;;;8.07;;
13411;SDS011;67102;51.666;6.880;2023-02-15T14:23:00;12.67;;;8.50;;
13411;SDS011;67102;51.666;6.880;2023-02-15T14:25:34;12.20;;;8.00;;
13411;SDS011;67102;51.666;6.880;2023-02-15T14:28:08;12.43;;;7.83;;
13411;SDS011;67102;51.666;6.880;2023-02-15T14:30:40;11.50;;;8.10;;
13411;SDS011;67102;51.666;6.880;2023-02-15T14:33:15;12.63;;;7.73;;
13411;SDS011;67102;51.666;6.880;2023-02-15T14:36:07;12.50;;;7.93;;
13411;SDS011;67102;51.666;6.880;2023-02-15T14:38:39;12.87;;;7.57;;
13411;SDS011;67102;51.666;6.880;2023-02-15T14:41:16;11.60;;;7.90;;
13411;SDS011;67102;51.666;6.880;2023-02-15T14:43:52;11.97;;;7.53;;
13411;SDS011;67102;51.666;6.880;2023-02-15T14:46:30;10.30;;;7.13;;
13411;SDS011;67102;51.666;6.880;2023-02-15T14:49:09;11.57;;;7.83;;
13411;SDS011;67102;51.666;6.880;2023-02-15T14:51:55;12.10;;;7.30;;
13411;SDS011;67102;51.666;6.880;2023-02-15T14:57:27;13.20;;;8.03;;
13411;SDS011;67102;51.666;6.880;2023-02-15T14:59:57;13.87;;;8.83;;
13411;SDS011;67102;51.666;6.880;2023-02-15T15:02:29;13.20;;;8.53;;
13411;SDS011;67102;51.666;6.880;2023-02-15T15:05:09;13.00;;;8.27;;
13411;SDS011;67102;51.666;6.880;2023-02-15T15:07:43;13.47;;;8.60;;
13411;SDS011;67102;51.666;6.880;2023-02-15T15:19:56;15.00;;;8.43;;
13411;SDS011;67102;51.666;6.880;2023-02-15T15:22:25;12.83;;;8.33;;
13411;SDS011;67102;51.666;6.880;2023-02-15T15:24:53;12.37;;;8.00;;